CheckWX is a tool to help pilots better visualize weather data.  It is not intended as a substitute for an official pre-flight weather briefing.

04:57:06 UTC

ENRS METAR
Røst Airport
Norway
Current

11 hours ago

ENRS 251820Z 23019KT 9999 RA SCT007 BKN024 13/12 Q1010
Observed
Aug-25 @ 18:20 UTC
Wind
  • 230° at 19 KTS
Visibility
10,000+ meters
Flight Rules
MVFR
Conditions
Rain
Cloud Levels
  • Scattered at 700' AGL
  • Broken at 2,400' AGL
Temperature
13°C / 55°F
Dewpoint
12°C / 54°F
Humidity
94%
Altimeter
29.82" Hg
Pressure
1009.92 hPa
Previous

12 hours ago

ENRS 251720Z 23018KT 9999 RA FEW007 SCT010 BKN028 13/12 Q1009
Observed
Aug-25 @ 17:20 UTC
Wind
  • 230° at 18 KTS
Visibility
10,000+ meters
Flight Rules
MVFR
Conditions
Rain
Cloud Levels
  • Few at 700' AGL
  • Scattered at 1,000' AGL
  • Broken at 2,800' AGL
Temperature
13°C / 55°F
Dewpoint
12°C / 54°F
Humidity
94%
Altimeter
29.79" Hg
Pressure
1008.92 hPa
Previous

12 hours ago

ENRS 251650Z 22019KT 9999 RA FEW007 SCT010 BKN028 13/12 Q1009
Observed
Aug-25 @ 16:50 UTC
Wind
  • 220° at 19 KTS
Visibility
10,000+ meters
Flight Rules
MVFR
Conditions
Rain
Cloud Levels
  • Few at 700' AGL
  • Scattered at 1,000' AGL
  • Broken at 2,800' AGL
Temperature
13°C / 55°F
Dewpoint
12°C / 54°F
Humidity
94%
Altimeter
29.79" Hg
Pressure
1008.92 hPa